sensor_id;sensor_type;location;lat;lon;timestamp;temperature;humidity
4201;DHT22;2114;50.398;8.814;2022-11-03T00:01:38;9.20;99.90
4201;DHT22;2114;50.398;8.814;2022-11-03T00:06:40;9.20;99.90
4201;DHT22;2114;50.398;8.814;2022-11-03T00:11:42;9.10;99.90
4201;DHT22;2114;50.398;8.814;2022-11-03T00:16:44;9.10;99.90
4201;DHT22;2114;50.398;8.814;2022-11-03T00:21:45;9.00;99.90
4201;DHT22;2114;50.398;8.814;2022-11-03T00:26:46;9.00;99.90
4201;DHT22;2114;50.398;8.814;2022-11-03T00:31:46;9.00;99.90
4201;DHT22;2114;50.398;8.814;2022-11-03T00:36:47;9.00;99.90
4201;DHT22;2114;50.398;8.814;2022-11-03T00:41:47;9.00;99.90
4201;DHT22;2114;50.398;8.814;2022-11-03T00:46:48;9.00;99.90
4201;DHT22;2114;50.398;8.814;2022-11-03T00:51:48;8.90;99.90
4201;DHT22;2114;50.398;8.814;2022-11-03T00:56:49;8.90;99.90
4201;DHT22;2114;50.398;8.814;2022-11-03T01:01:49;8.80;99.90
4201;DHT22;2114;50.398;8.814;2022-11-03T01:06:51;8.80;99.90
4201;DHT22;2114;50.398;8.814;2022-11-03T01:12:05;8.80;99.90
4201;DHT22;2114;50.398;8.814;2022-11-03T01:17:08;8.80;99.90
4201;DHT22;2114;50.398;8.814;2022-11-03T01:22:10;8.80;99.90
4201;DHT22;2114;50.398;8.814;2022-11-03T01:27:14;8.80;99.90
4201;DHT22;2114;50.398;8.814;2022-11-03T01:32:15;8.80;99.90
4201;DHT22;2114;50.398;8.814;2022-11-03T01:37:15;8.80;99.90
4201;DHT22;2114;50.398;8.814;2022-11-03T01:42:16;8.80;99.90
4201;DHT22;2114;50.398;8.814;2022-11-03T01:47:28;8.80;99.90
4201;DHT22;2114;50.398;8.814;2022-11-03T01:57:46;8.90;99.90
4201;DHT22;2114;50.398;8.814;2022-11-03T02:02:49;9.00;99.90
4201;DHT22;2114;50.398;8.814;2022-11-03T02:12:54;9.00;99.90
4201;DHT22;2114;50.398;8.814;2022-11-03T02:17:56;9.00;99.90
4201;DHT22;2114;50.398;8.814;2022-11-03T02:23:19;9.00;99.90
4201;DHT22;2114;50.398;8.814;2022-11-03T02:28:28;9.00;99.90
4201;DHT22;2114;50.398;8.814;2022-11-03T02:39:15;8.90;99.90
4201;DHT22;2114;50.398;8.814;2022-11-03T02:44:19;8.80;99.90
4201;DHT22;2114;50.398;8.814;2022-11-03T02:49:20;8.80;99.90
4201;DHT22;2114;50.398;8.814;2022-11-03T02:54:24;8.70;99.90
4201;DHT22;2114;50.398;8.814;2022-11-03T02:59:29;8.70;99.90
4201;DHT22;2114;50.398;8.814;2022-11-03T03:04:39;8.70;99.90
4201;DHT22;2114;50.398;8.814;2022-11-03T03:09:46;8.60;99.90
4201;DHT22;2114;50.398;8.814;2022-11-03T03:14:50;8.60;99.90
4201;DHT22;2114;50.398;8.814;2022-11-03T03:20:02;8.60;99.90
4201;DHT22;2114;50.398;8.814;2022-11-03T03:30:16;8.60;99.90
4201;DHT22;2114;50.398;8.814;2022-11-03T03:35:21;8.50;99.90
4201;DHT22;2114;50.398;8.814;2022-11-03T03:40:31;8.50;99.90
4201;DHT22;2114;50.398;8.814;2022-11-03T03:45:33;8.50;99.90
4201;DHT22;2114;50.398;8.814;2022-11-03T03:50:37;8.40;99.90
4201;DHT22;2114;50.398;8.814;2022-11-03T03:55:43;8.40;99.90
4201;DHT22;2114;50.398;8.814;2022-11-03T04:00:45;8.30;99.90
4201;DHT22;2114;50.398;8.814;2022-11-03T04:05:46;8.30;99.90
4201;DHT22;2114;50.398;8.814;2022-11-03T04:10:47;8.30;99.90
4201;DHT22;2114;50.398;8.814;2022-11-03T04:16:13;8.20;99.90
4201;DHT22;2114;50.398;8.814;2022-11-03T04:21:33;8.20;99.90
4201;DHT22;2114;50.398;8.814;2022-11-03T04:27:04;8.10;99.90
4201;DHT22;2114;50.398;8.814;2022-11-03T04:32:16;8.10;99.90
4201;DHT22;2114;50.398;8.814;2022-11-03T04:37:29;8.00;99.90
4201;DHT22;2114;50.398;8.814;2022-11-03T04:42:30;7.90;99.90
4201;DHT22;2114;50.398;8.814;2022-11-03T04:47:32;7.80;99.90
4201;DHT22;2114;50.398;8.814;2022-11-03T04:52:32;7.80;99.90
4201;DHT22;2114;50.398;8.814;2022-11-03T04:57:33;7.80;99.90
4201;DHT22;2114;50.398;8.814;2022-11-03T05:02:34;7.80;99.90
4201;DHT22;2114;50.398;8.814;2022-11-03T05:07:35;7.70;99.90
4201;DHT22;2114;50.398;8.814;2022-11-03T05:12:35;7.70;99.90
4201;DHT22;2114;50.398;8.814;2022-11-03T05:17:36;7.60;99.90
4201;DHT22;2114;50.398;8.814;2022-11-03T05:22:38;7.60;99.90
4201;DHT22;2114;50.398;8.814;2022-11-03T05:27:38;7.50;99.90
4201;DHT22;2114;50.398;8.814;2022-11-03T05:32:39;7.50;99.90
4201;DHT22;2114;50.398;8.814;2022-11-03T05:37:41;7.50;99.90
4201;DHT22;2114;50.398;8.814;2022-11-03T05:42:43;7.40;99.90
4201;DHT22;2114;50.398;8.814;2022-11-03T05:47:46;7.40;99.90
4201;DHT22;2114;50.398;8.814;2022-11-03T05:52:56;7.40;99.90
4201;DHT22;2114;50.398;8.814;2022-11-03T05:58:01;7.30;99.90
4201;DHT22;2114;50.398;8.814;2022-11-03T06:03:04;7.30;99.90
4201;DHT22;2114;50.398;8.814;2022-11-03T06:08:13;7.30;99.90
4201;DHT22;2114;50.398;8.814;2022-11-03T06:13:26;7.20;99.90
4201;DHT22;2114;50.398;8.814;2022-11-03T06:18:33;7.20;99.90
4201;DHT22;2114;50.398;8.814;2022-11-03T06:23:35;7.20;99.90
4201;DHT22;2114;50.398;8.814;2022-11-03T06:28:38;7.20;99.90
4201;DHT22;2114;50.398;8.814;2022-11-03T06:33:39;7.10;99.90
4201;DHT22;2114;50.398;8.814;2022-11-03T06:38:39;7.10;99.90
4201;DHT22;2114;50.398;8.814;2022-11-03T06:43:41;7.10;99.90
4201;DHT22;2114;50.398;8.814;2022-11-03T06:48:42;7.10;99.90
4201;DHT22;2114;50.398;8.814;2022-11-03T06:53:43;7.10;99.90
4201;DHT22;2114;50.398;8.814;2022-11-03T06:58:45;7.00;99.90
4201;DHT22;2114;50.398;8.814;2022-11-03T07:03:50;7.00;99.90
4201;DHT22;2114;50.398;8.814;2022-11-03T07:08:54;7.00;99.90
4201;DHT22;2114;50.398;8.814;2022-11-03T07:14:18;7.10;99.90
4201;DHT22;2114;50.398;8.814;2022-11-03T07:19:18;7.10;99.90
4201;DHT22;2114;50.398;8.814;2022-11-03T07:24:23;7.10;99.90
4201;DHT22;2114;50.398;8.814;2022-11-03T07:29:26;7.20;99.90
4201;DHT22;2114;50.398;8.814;2022-11-03T07:34:31;7.20;99.90
4201;DHT22;2114;50.398;8.814;2022-11-03T07:39:34;7.30;99.90
4201;DHT22;2114;50.398;8.814;2022-11-03T07:44:35;7.30;99.90
4201;DHT22;2114;50.398;8.814;2022-11-03T07:49:36;7.30;99.90
4201;DHT22;2114;50.398;8.814;2022-11-03T07:54:36;7.40;99.90
4201;DHT22;2114;50.398;8.814;2022-11-03T07:59:41;7.40;99.90
4201;DHT22;2114;50.398;8.814;2022-11-03T08:04:43;7.50;99.90
4201;DHT22;2114;50.398;8.814;2022-11-03T08:09:43;7.50;99.90
4201;DHT22;2114;50.398;8.814;2022-11-03T08:14:44;7.60;99.90
4201;DHT22;2114;50.398;8.814;2022-11-03T08:19:45;7.70;99.90
4201;DHT22;2114;50.398;8.814;2022-11-03T08:24:45;7.80;99.90
4201;DHT22;2114;50.398;8.814;2022-11-03T08:29:46;8.00;99.90
4201;DHT22;2114;50.398;8.814;2022-11-03T08:34:46;8.10;99.90
4201;DHT22;2114;50.398;8.814;2022-11-03T08:39:47;8.20;99.90
4201;DHT22;2114;50.398;8.814;2022-11-03T08:44:48;8.40;99.90
4201;DHT22;2114;50.398;8.814;2022-11-03T08:49:48;8.50;99.90
4201;DHT22;2114;50.398;8.814;2022-11-03T08:54:49;8.70;99.90
4201;DHT22;2114;50.398;8.814;2022-11-03T08:59:49;8.80;99.90
4201;DHT22;2114;50.398;8.814;2022-11-03T09:04:51;8.90;99.90
4201;DHT22;2114;50.398;8.814;2022-11-03T09:09:52;9.10;99.90
4201;DHT22;2114;50.398;8.814;2022-11-03T09:14:53;9.30;99.90
4201;DHT22;2114;50.398;8.814;2022-11-03T09:19:53;9.60;99.90
4201;DHT22;2114;50.398;8.814;2022-11-03T09:24:54;9.80;99.90
4201;DHT22;2114;50.398;8.814;2022-11-03T09:29:54;10.20;99.90
4201;DHT22;2114;50.398;8.814;2022-11-03T09:34:55;10.80;99.90
4201;DHT22;2114;50.398;8.814;2022-11-03T09:39:56;11.20;99.90
4201;DHT22;2114;50.398;8.814;2022-11-03T09:44:57;11.50;99.90
4201;DHT22;2114;50.398;8.814;2022-11-03T09:49:58;11.70;99.90
4201;DHT22;2114;50.398;8.814;2022-11-03T09:54:59;11.80;99.90
4201;DHT22;2114;50.398;8.814;2022-11-03T09:59:59;11.90;99.90
4201;DHT22;2114;50.398;8.814;2022-11-03T10:05:00;11.90;99.90
4201;DHT22;2114;50.398;8.814;2022-11-03T10:10:01;12.10;99.90
4201;DHT22;2114;50.398;8.814;2022-11-03T10:15:02;12.50;99.90
4201;DHT22;2114;50.398;8.814;2022-11-03T10:20:05;12.90;99.90
4201;DHT22;2114;50.398;8.814;2022-11-03T10:25:29;13.20;99.90
4201;DHT22;2114;50.398;8.814;2022-11-03T10:30:32;13.40;99.90
4201;DHT22;2114;50.398;8.814;2022-11-03T10:35:34;13.40;99.90
4201;DHT22;2114;50.398;8.814;2022-11-03T10:40:35;13.30;99.90
4201;DHT22;2114;50.398;8.814;2022-11-03T10:45:36;13.30;99.90
4201;DHT22;2114;50.398;8.814;2022-11-03T10:50:39;13.30;99.90
4201;DHT22;2114;50.398;8.814;2022-11-03T10:55:40;13.10;99.90
4201;DHT22;2114;50.398;8.814;2022-11-03T11:00:41;13.00;99.90
4201;DHT22;2114;50.398;8.814;2022-11-03T11:05:46;12.90;99.90
4201;DHT22;2114;50.398;8.814;2022-11-03T11:10:47;13.00;99.90
4201;DHT22;2114;50.398;8.814;2022-11-03T11:15:51;13.30;99.90
4201;DHT22;2114;50.398;8.814;2022-11-03T11:20:56;13.40;99.90
4201;DHT22;2114;50.398;8.814;2022-11-03T11:36:29;13.60;99.90
4201;DHT22;2114;50.398;8.814;2022-11-03T11:52:23;14.00;99.90
4201;DHT22;2114;50.398;8.814;2022-11-03T11:57:24;14.00;99.90
4201;DHT22;2114;50.398;8.814;2022-11-03T12:02:29;14.10;99.90
4201;DHT22;2114;50.398;8.814;2022-11-03T12:07:34;14.10;99.90
4201;DHT22;2114;50.398;8.814;2022-11-03T12:12:35;14.00;99.90
4201;DHT22;2114;50.398;8.814;2022-11-03T12:17:36;13.90;99.90
4201;DHT22;2114;50.398;8.814;2022-11-03T12:22:40;13.80;99.90
4201;DHT22;2114;50.398;8.814;2022-11-03T12:27:42;13.80;99.90
4201;DHT22;2114;50.398;8.814;2022-11-03T12:32:43;13.70;99.90
4201;DHT22;2114;50.398;8.814;2022-11-03T12:37:43;13.60;99.90
4201;DHT22;2114;50.398;8.814;2022-11-03T12:42:45;13.60;99.90
4201;DHT22;2114;50.398;8.814;2022-11-03T12:47:46;13.60;99.90
4201;DHT22;2114;50.398;8.814;2022-11-03T12:52:46;13.50;99.90
4201;DHT22;2114;50.398;8.814;2022-11-03T12:57:47;13.50;99.90
4201;DHT22;2114;50.398;8.814;2022-11-03T13:02:48;13.50;99.90
4201;DHT22;2114;50.398;8.814;2022-11-03T13:07:48;13.50;99.90
4201;DHT22;2114;50.398;8.814;2022-11-03T13:12:49;13.40;99.90
4201;DHT22;2114;50.398;8.814;2022-11-03T13:17:49;13.30;99.90
4201;DHT22;2114;50.398;8.814;2022-11-03T13:22:50;13.30;99.90
4201;DHT22;2114;50.398;8.814;2022-11-03T13:27:51;13.30;99.90
4201;DHT22;2114;50.398;8.814;2022-11-03T13:32:53;13.30;99.90
4201;DHT22;2114;50.398;8.814;2022-11-03T13:37:54;13.20;99.90
4201;DHT22;2114;50.398;8.814;2022-11-03T13:42:54;13.20;99.90
4201;DHT22;2114;50.398;8.814;2022-11-03T13:47:55;13.10;99.90
4201;DHT22;2114;50.398;8.814;2022-11-03T13:52:56;13.00;99.90
4201;DHT22;2114;50.398;8.814;2022-11-03T13:57:57;13.00;99.90
4201;DHT22;2114;50.398;8.814;2022-11-03T14:02:57;13.00;99.90
4201;DHT22;2114;50.398;8.814;2022-11-03T14:07:58;12.90;99.90
4201;DHT22;2114;50.398;8.814;2022-11-03T14:12:59;12.90;99.90
4201;DHT22;2114;50.398;8.814;2022-11-03T14:17:59;12.90;99.90
4201;DHT22;2114;50.398;8.814;2022-11-03T14:23:00;12.80;99.90
4201;DHT22;2114;50.398;8.814;2022-11-03T14:28:00;12.70;99.90
4201;DHT22;2114;50.398;8.814;2022-11-03T14:33:01;12.70;99.90
4201;DHT22;2114;50.398;8.814;2022-11-03T14:38:02;12.60;99.90
4201;DHT22;2114;50.398;8.814;2022-11-03T14:43:02;12.60;99.90
4201;DHT22;2114;50.398;8.814;2022-11-03T14:48:03;12.50;99.90
4201;DHT22;2114;50.398;8.814;2022-11-03T14:53:03;12.50;99.90
4201;DHT22;2114;50.398;8.814;2022-11-03T14:58:05;12.40;99.90
4201;DHT22;2114;50.398;8.814;2022-11-03T15:03:05;12.40;99.90
4201;DHT22;2114;50.398;8.814;2022-11-03T15:08:06;12.30;99.90
4201;DHT22;2114;50.398;8.814;2022-11-03T15:13:06;12.20;99.90
4201;DHT22;2114;50.398;8.814;2022-11-03T15:18:09;12.20;99.90
4201;DHT22;2114;50.398;8.814;2022-11-03T15:23:10;12.20;99.90
4201;DHT22;2114;50.398;8.814;2022-11-03T15:28:11;12.10;99.90
4201;DHT22;2114;50.398;8.814;2022-11-03T15:33:11;12.00;99.90
4201;DHT22;2114;50.398;8.814;2022-11-03T15:38:12;12.00;99.90
4201;DHT22;2114;50.398;8.814;2022-11-03T15:43:13;11.90;99.90
4201;DHT22;2114;50.398;8.814;2022-11-03T15:48:13;11.80;99.90
4201;DHT22;2114;50.398;8.814;2022-11-03T15:53:14;11.80;99.90
4201;DHT22;2114;50.398;8.814;2022-11-03T15:58:17;11.70;99.90
4201;DHT22;2114;50.398;8.814;2022-11-03T16:03:18;11.60;99.90
4201;DHT22;2114;50.398;8.814;2022-11-03T16:08:18;11.60;99.90
4201;DHT22;2114;50.398;8.814;2022-11-03T16:13:19;11.70;99.90
4201;DHT22;2114;50.398;8.814;2022-11-03T16:18:20;11.80;99.90
4201;DHT22;2114;50.398;8.814;2022-11-03T16:23:20;11.90;99.90
4201;DHT22;2114;50.398;8.814;2022-11-03T16:28:21;12.00;99.90
4201;DHT22;2114;50.398;8.814;2022-11-03T16:33:22;12.20;99.90
4201;DHT22;2114;50.398;8.814;2022-11-03T16:38:23;12.20;99.90
4201;DHT22;2114;50.398;8.814;2022-11-03T16:43:23;12.10;99.90
4201;DHT22;2114;50.398;8.814;2022-11-03T16:48:24;11.90;99.90
4201;DHT22;2114;50.398;8.814;2022-11-03T16:53:25;11.70;99.90
4201;DHT22;2114;50.398;8.814;2022-11-03T16:58:25;11.60;99.90
4201;DHT22;2114;50.398;8.814;2022-11-03T17:03:26;11.50;99.90
4201;DHT22;2114;50.398;8.814;2022-11-03T17:08:27;11.50;99.90
4201;DHT22;2114;50.398;8.814;2022-11-03T17:13:27;11.40;99.90
4201;DHT22;2114;50.398;8.814;2022-11-03T17:18:29;11.30;99.90
4201;DHT22;2114;50.398;8.814;2022-11-03T17:23:29;11.30;99.90
4201;DHT22;2114;50.398;8.814;2022-11-03T17:28:30;11.30;99.90
4201;DHT22;2114;50.398;8.814;2022-11-03T17:33:31;11.20;99.90
4201;DHT22;2114;50.398;8.814;2022-11-03T17:38:32;11.20;99.90
4201;DHT22;2114;50.398;8.814;2022-11-03T17:43:33;11.20;99.90
4201;DHT22;2114;50.398;8.814;2022-11-03T17:48:37;11.20;99.90
4201;DHT22;2114;50.398;8.814;2022-11-03T17:53:40;11.10;99.90
4201;DHT22;2114;50.398;8.814;2022-11-03T17:58:42;11.10;99.90
4201;DHT22;2114;50.398;8.814;2022-11-03T18:03:42;11.20;99.90
4201;DHT22;2114;50.398;8.814;2022-11-03T18:08:44;11.30;99.90
4201;DHT22;2114;50.398;8.814;2022-11-03T18:13:45;11.30;99.90
4201;DHT22;2114;50.398;8.814;2022-11-03T18:18:46;11.40;99.90
4201;DHT22;2114;50.398;8.814;2022-11-03T18:23:48;11.40;99.90
4201;DHT22;2114;50.398;8.814;2022-11-03T18:28:49;11.40;99.90
4201;DHT22;2114;50.398;8.814;2022-11-03T18:33:50;11.40;99.90
4201;DHT22;2114;50.398;8.814;2022-11-03T18:38:54;11.40;99.90
4201;DHT22;2114;50.398;8.814;2022-11-03T18:43:55;11.50;99.90
4201;DHT22;2114;50.398;8.814;2022-11-03T18:48:56;11.50;99.90
4201;DHT22;2114;50.398;8.814;2022-11-03T18:53:58;11.50;99.90
4201;DHT22;2114;50.398;8.814;2022-11-03T18:58:58;11.50;99.90
4201;DHT22;2114;50.398;8.814;2022-11-03T19:03:59;11.50;99.90
4201;DHT22;2114;50.398;8.814;2022-11-03T19:08:59;11.50;99.90
4201;DHT22;2114;50.398;8.814;2022-11-03T19:14:01;11.50;99.90
4201;DHT22;2114;50.398;8.814;2022-11-03T19:19:02;11.50;99.90
4201;DHT22;2114;50.398;8.814;2022-11-03T19:24:02;11.50;99.90
4201;DHT22;2114;50.398;8.814;2022-11-03T19:29:09;11.50;99.90
4201;DHT22;2114;50.398;8.814;2022-11-03T19:34:20;11.50;99.90
4201;DHT22;2114;50.398;8.814;2022-11-03T19:39:29;11.40;99.90
4201;DHT22;2114;50.398;8.814;2022-11-03T19:44:30;11.40;99.90
4201;DHT22;2114;50.398;8.814;2022-11-03T19:49:32;11.40;99.90
4201;DHT22;2114;50.398;8.814;2022-11-03T19:54:33;11.30;99.90
4201;DHT22;2114;50.398;8.814;2022-11-03T19:59:33;11.30;99.90
4201;DHT22;2114;50.398;8.814;2022-11-03T20:04:34;11.30;99.90
4201;DHT22;2114;50.398;8.814;2022-11-03T20:09:35;11.30;99.90
4201;DHT22;2114;50.398;8.814;2022-11-03T20:14:36;11.30;99.90
4201;DHT22;2114;50.398;8.814;2022-11-03T20:19:37;11.30;99.90
4201;DHT22;2114;50.398;8.814;2022-11-03T20:24:37;11.30;99.90
4201;DHT22;2114;50.398;8.814;2022-11-03T20:29:39;11.30;99.90
4201;DHT22;2114;50.398;8.814;2022-11-03T20:34:40;11.30;99.90
4201;DHT22;2114;50.398;8.814;2022-11-03T20:39:41;11.30;99.90
4201;DHT22;2114;50.398;8.814;2022-11-03T20:44:42;11.30;99.90
4201;DHT22;2114;50.398;8.814;2022-11-03T20:49:44;11.30;99.90
4201;DHT22;2114;50.398;8.814;2022-11-03T20:54:44;11.30;99.90
4201;DHT22;2114;50.398;8.814;2022-11-03T20:59:45;11.20;99.90
4201;DHT22;2114;50.398;8.814;2022-11-03T21:04:46;11.20;99.90
4201;DHT22;2114;50.398;8.814;2022-11-03T21:09:46;11.20;99.90
4201;DHT22;2114;50.398;8.814;2022-11-03T21:14:47;11.20;99.90
4201;DHT22;2114;50.398;8.814;2022-11-03T21:20:06;11.20;99.90
4201;DHT22;2114;50.398;8.814;2022-11-03T21:25:19;11.20;99.90
4201;DHT22;2114;50.398;8.814;2022-11-03T21:30:21;11.20;99.90
4201;DHT22;2114;50.398;8.814;2022-11-03T21:35:22;11.20;99.90
4201;DHT22;2114;50.398;8.814;2022-11-03T21:40:23;11.20;99.90
4201;DHT22;2114;50.398;8.814;2022-11-03T21:45:24;11.10;99.90
4201;DHT22;2114;50.398;8.814;2022-11-03T21:50:24;11.10;99.90
4201;DHT22;2114;50.398;8.814;2022-11-03T21:55:25;11.10;99.90
4201;DHT22;2114;50.398;8.814;2022-11-03T22:00:25;11.10;99.90
4201;DHT22;2114;50.398;8.814;2022-11-03T22:05:28;11.10;99.90
4201;DHT22;2114;50.398;8.814;2022-11-03T22:10:28;11.10;99.90
4201;DHT22;2114;50.398;8.814;2022-11-03T22:15:29;11.10;99.90
4201;DHT22;2114;50.398;8.814;2022-11-03T22:20:48;11.10;99.90
4201;DHT22;2114;50.398;8.814;2022-11-03T22:26:10;11.10;99.90
4201;DHT22;2114;50.398;8.814;2022-11-03T22:31:30;11.10;99.90
4201;DHT22;2114;50.398;8.814;2022-11-03T22:36:40;11.10;99.90
4201;DHT22;2114;50.398;8.814;2022-11-03T22:41:41;11.20;99.90
4201;DHT22;2114;50.398;8.814;2022-11-03T22:47:00;11.20;99.90
4201;DHT22;2114;50.398;8.814;2022-11-03T22:52:01;11.20;99.90
4201;DHT22;2114;50.398;8.814;2022-11-03T22:57:01;11.20;99.90
4201;DHT22;2114;50.398;8.814;2022-11-03T23:02:02;11.20;99.90
4201;DHT22;2114;50.398;8.814;2022-11-03T23:07:02;11.20;99.90
4201;DHT22;2114;50.398;8.814;2022-11-03T23:12:03;11.20;99.90
4201;DHT22;2114;50.398;8.814;2022-11-03T23:17:04;11.10;99.90
4201;DHT22;2114;50.398;8.814;2022-11-03T23:22:04;11.10;99.90
4201;DHT22;2114;50.398;8.814;2022-11-03T23:27:06;11.10;99.90
4201;DHT22;2114;50.398;8.814;2022-11-03T23:32:06;11.10;99.90
4201;DHT22;2114;50.398;8.814;2022-11-03T23:37:07;11.10;99.90
4201;DHT22;2114;50.398;8.814;2022-11-03T23:42:08;11.10;99.90
4201;DHT22;2114;50.398;8.814;2022-11-03T23:47:08;11.10;99.90
4201;DHT22;2114;50.398;8.814;2022-11-03T23:52:28;11.10;99.90
4201;DHT22;2114;50.398;8.814;2022-11-03T23:57:28;11.00;99.90
